createdAt,value
2022-09-28T00:01:08.380Z,9.10
2022-09-28T00:03:36.857Z,9.10
2022-09-28T00:06:08.157Z,9.10
2022-09-28T00:08:36.987Z,9.00
2022-09-28T00:11:05.809Z,9.00
2022-09-28T00:13:34.836Z,9.00
2022-09-28T00:16:04.862Z,9.00
2022-09-28T00:18:33.268Z,9.00
2022-09-28T00:21:02.369Z,9.00
2022-09-28T00:23:33.298Z,9.00
2022-09-28T00:26:04.857Z,9.00
2022-09-28T00:28:33.567Z,9.00
2022-09-28T00:31:02.018Z,9.00
2022-09-28T00:33:30.677Z,9.10
2022-09-28T00:35:59.347Z,9.10
2022-09-28T00:38:29.707Z,9.10
2022-09-28T00:40:59.808Z,9.10
2022-09-28T00:43:28.327Z,9.10
2022-09-28T00:45:59.988Z,9.10
2022-09-28T00:48:29.754Z,9.10
2022-09-28T00:50:58.866Z,9.10
2022-09-28T00:53:28.067Z,9.10
2022-09-28T00:55:58.048Z,9.00
2022-09-28T00:58:29.340Z,9.00
2022-09-28T01:00:59.584Z,9.00
2022-09-28T01:03:28.219Z,9.00
2022-09-28T01:05:57.568Z,8.90
2022-09-28T01:08:27.808Z,9.00
2022-09-28T01:10:56.506Z,8.90
2022-09-28T01:13:25.819Z,8.90
2022-09-28T01:16:00.996Z,9.00
2022-09-28T01:18:33.295Z,8.90
2022-09-28T01:21:02.848Z,8.90
2022-09-28T01:23:36.778Z,8.70
2022-09-28T01:26:26.058Z,8.60
2022-09-28T01:29:01.992Z,8.60
2022-09-28T01:31:33.316Z,8.60
2022-09-28T01:34:05.540Z,8.50
2022-09-28T01:36:36.909Z,8.50
2022-09-28T01:39:07.279Z,8.50
2022-09-28T01:41:36.950Z,8.50
2022-09-28T01:44:08.896Z,8.50
2022-09-28T01:46:38.776Z,8.40
2022-09-28T01:49:09.317Z,8.40
2022-09-28T01:51:40.557Z,8.40
2022-09-28T01:54:12.357Z,8.30
2022-09-28T01:56:43.198Z,8.30
2022-09-28T01:59:15.371Z,8.30
2022-09-28T02:01:45.613Z,8.30
2022-09-28T02:04:16.198Z,8.20
2022-09-28T02:06:47.751Z,8.20
2022-09-28T02:09:19.330Z,8.10
2022-09-28T02:11:51.036Z,8.10
2022-09-28T02:14:21.722Z,8.10
2022-09-28T02:16:51.808Z,8.00
2022-09-28T02:19:21.097Z,8.00
2022-09-28T02:21:55.348Z,8.00
2022-09-28T02:24:25.688Z,8.00
2022-09-28T02:26:56.930Z,8.00
2022-09-28T02:29:26.729Z,8.00
2022-09-28T02:31:56.125Z,8.00
2022-09-28T02:34:27.538Z,8.00
2022-09-28T02:36:56.135Z,7.70
2022-09-28T02:39:24.731Z,7.90
2022-09-28T02:41:56.617Z,7.90
2022-09-28T02:44:37.778Z,8.00
2022-09-28T02:47:07.959Z,7.90
2022-09-28T02:49:39.539Z,7.90
2022-09-28T02:52:16.888Z,8.00
2022-09-28T02:55:03.107Z,8.00
2022-09-28T02:57:37.148Z,7.90
2022-09-28T03:00:09.008Z,7.90
2022-09-28T03:02:42.468Z,7.90
2022-09-28T03:05:16.077Z,7.90
2022-09-28T03:07:48.217Z,7.90
2022-09-28T03:10:21.327Z,7.90
2022-09-28T03:12:50.474Z,8.00
2022-09-28T03:15:24.727Z,7.90
2022-09-28T03:17:53.458Z,7.90
2022-09-28T03:20:21.890Z,7.90
2022-09-28T03:23:06.363Z,8.00
2022-09-28T03:25:39.038Z,8.00
2022-09-28T03:28:07.460Z,8.00
2022-09-28T03:30:38.247Z,8.00
2022-09-28T03:33:07.229Z,8.10
2022-09-28T03:35:35.794Z,8.10
2022-09-28T03:38:04.127Z,8.10
2022-09-28T03:40:32.641Z,8.20
2022-09-28T03:43:01.643Z,8.20
2022-09-28T03:45:30.035Z,8.20
2022-09-28T03:48:00.547Z,8.20
2022-09-28T03:50:29.074Z,8.20
2022-09-28T03:53:03.046Z,8.20
2022-09-28T03:55:31.635Z,8.30
2022-09-28T03:58:00.044Z,8.30
2022-09-28T04:00:28.933Z,8.30
2022-09-28T04:03:00.039Z,8.30
2022-09-28T04:05:28.992Z,8.30
2022-09-28T04:07:58.094Z,8.40
2022-09-28T04:10:27.105Z,8.30
2022-09-28T04:12:56.122Z,8.30
2022-09-28T04:15:24.913Z,8.30
2022-09-28T04:17:53.581Z,8.20
2022-09-28T04:20:23.762Z,8.30
2022-09-28T04:22:52.383Z,8.30
2022-09-28T04:25:22.832Z,8.30
2022-09-28T04:28:09.292Z,8.30
2022-09-28T04:30:38.223Z,8.30
2022-09-28T04:33:06.922Z,8.40
2022-09-28T04:35:37.323Z,8.40
2022-09-28T04:38:06.452Z,8.40
2022-09-28T04:40:34.990Z,8.40
2022-09-28T04:43:03.652Z,8.50
2022-09-28T04:45:32.414Z,8.50
2022-09-28T04:48:00.982Z,8.40
2022-09-28T04:50:30.792Z,8.50
2022-09-28T04:53:02.052Z,8.40
2022-09-28T04:55:32.913Z,8.50
2022-09-28T04:58:03.570Z,8.50
2022-09-28T05:00:36.194Z,8.50
2022-09-28T05:03:06.164Z,8.50
2022-09-28T05:05:34.503Z,8.50
2022-09-28T05:08:04.422Z,8.60
2022-09-28T05:10:32.922Z,8.60
2022-09-28T05:13:02.958Z,8.70
2022-09-28T05:15:31.312Z,8.70
2022-09-28T05:17:59.752Z,8.70
2022-09-28T05:20:28.112Z,8.70
2022-09-28T05:22:57.664Z,8.70
2022-09-28T05:25:27.672Z,8.70
2022-09-28T05:27:57.572Z,8.70
2022-09-28T05:30:26.105Z,8.60
2022-09-28T05:32:54.603Z,8.60
2022-09-28T05:35:23.622Z,8.60
2022-09-28T05:37:52.064Z,8.60
2022-09-28T05:40:20.801Z,8.60
2022-09-28T05:42:51.241Z,8.70
2022-09-28T05:45:19.852Z,8.70
2022-09-28T05:47:48.233Z,8.70
2022-09-28T05:50:17.122Z,8.80
2022-09-28T05:52:45.694Z,8.70
2022-09-28T05:55:14.191Z,8.80
2022-09-28T05:57:42.464Z,8.80
2022-09-28T06:00:13.273Z,8.80
2022-09-28T06:02:41.944Z,8.80
2022-09-28T06:05:10.762Z,8.80
2022-09-28T06:07:39.165Z,8.80
2022-09-28T06:10:09.003Z,8.90
2022-09-28T06:12:38.508Z,9.00
2022-09-28T06:15:07.501Z,8.90
2022-09-28T06:17:37.348Z,8.80
2022-09-28T06:20:05.902Z,8.90
2022-09-28T06:22:34.402Z,8.90
2022-09-28T06:25:02.889Z,8.90
2022-09-28T06:27:31.383Z,8.90
2022-09-28T06:30:04.024Z,8.90
2022-09-28T06:32:33.393Z,8.90
2022-09-28T06:35:03.287Z,8.90
2022-09-28T06:37:33.783Z,9.00
2022-09-28T06:40:03.441Z,9.00
2022-09-28T06:42:31.878Z,8.90
2022-09-28T06:45:00.338Z,8.90
2022-09-28T06:47:28.813Z,8.90
2022-09-28T06:49:57.242Z,9.00
2022-09-28T06:52:27.163Z,9.00
2022-09-28T06:54:55.713Z,9.00
2022-09-28T06:57:24.252Z,9.00
2022-09-28T06:59:52.695Z,9.00
2022-09-28T07:02:22.917Z,9.00
2022-09-28T07:04:51.610Z,9.00
2022-09-28T07:07:20.065Z,9.10
2022-09-28T07:09:55.371Z,9.10
2022-09-28T07:12:24.803Z,9.00
2022-09-28T07:14:56.523Z,9.10
2022-09-28T07:17:25.043Z,9.10
2022-09-28T07:19:53.792Z,9.10
2022-09-28T07:22:34.956Z,9.10
2022-09-28T07:25:10.512Z,9.10
2022-09-28T07:27:39.753Z,9.20
2022-09-28T07:30:09.065Z,9.20
2022-09-28T07:32:37.747Z,9.10
2022-09-28T07:35:08.243Z,9.20
2022-09-28T07:37:37.042Z,9.20
2022-09-28T07:40:23.470Z,9.20
2022-09-28T07:42:53.514Z,9.30
2022-09-28T07:45:24.044Z,9.10
2022-09-28T07:47:52.492Z,9.20
2022-09-28T07:50:21.563Z,9.30
2022-09-28T07:52:50.032Z,9.40
2022-09-28T07:55:18.623Z,9.30
2022-09-28T07:57:48.593Z,9.30
2022-09-28T08:00:18.957Z,9.20
2022-09-28T08:02:48.496Z,9.20
2022-09-28T08:05:17.194Z,9.20
2022-09-28T08:07:45.785Z,9.30
2022-09-28T08:10:14.404Z,9.30
2022-09-28T08:12:43.444Z,9.40
2022-09-28T08:15:12.353Z,9.40
2022-09-28T08:17:47.822Z,9.40
2022-09-28T08:20:33.671Z,9.40
2022-09-28T08:23:04.334Z,9.30
2022-09-28T08:25:32.986Z,9.30
2022-09-28T08:28:01.559Z,9.30
2022-09-28T08:30:31.992Z,9.30
2022-09-28T08:33:02.433Z,9.20
2022-09-28T08:35:30.813Z,9.00
2022-09-28T08:37:59.602Z,8.90
2022-09-28T08:40:28.229Z,9.00
2022-09-28T08:42:59.360Z,8.90
2022-09-28T08:45:28.895Z,8.90
2022-09-28T08:48:15.693Z,8.90
2022-09-28T08:50:51.772Z,8.80
2022-09-28T08:53:31.685Z,8.90
2022-09-28T08:56:00.694Z,8.80
2022-09-28T08:58:30.765Z,8.90
2022-09-28T09:01:18.860Z,8.90
2022-09-28T09:03:50.383Z,9.10
2022-09-28T09:06:27.904Z,9.20
2022-09-28T09:09:01.555Z,9.10
2022-09-28T09:11:41.562Z,9.00
2022-09-28T09:14:23.434Z,9.10
2022-09-28T09:17:00.436Z,8.90
2022-09-28T09:19:39.504Z,9.20
2022-09-28T09:22:15.133Z,9.20
2022-09-28T09:24:48.267Z,9.30
2022-09-28T09:27:25.126Z,9.40
2022-09-28T09:30:00.235Z,9.60
2022-09-28T09:32:38.252Z,9.60
2022-09-28T09:35:30.998Z,9.60
2022-09-28T09:38:07.122Z,9.50
2022-09-28T09:40:48.425Z,9.60
2022-09-28T09:43:33.244Z,9.60
2022-09-28T09:46:09.388Z,9.60
2022-09-28T09:48:40.205Z,9.60
2022-09-28T09:51:15.174Z,9.70
2022-09-28T09:53:47.754Z,9.90
2022-09-28T09:56:19.655Z,10.00
2022-09-28T09:58:52.539Z,10.00
2022-09-28T10:01:22.104Z,10.10
2022-09-28T10:03:51.492Z,10.30
2022-09-28T10:06:21.933Z,10.30
2022-09-28T10:08:54.063Z,10.40
2022-09-28T10:11:24.753Z,10.50
2022-09-28T10:13:53.095Z,10.50
2022-09-28T10:16:21.702Z,10.50
2022-09-28T10:18:50.994Z,10.60
2022-09-28T10:21:21.733Z,10.50
2022-09-28T10:24:08.893Z,10.50
2022-09-28T10:26:40.254Z,10.40
2022-09-28T10:29:14.918Z,10.30
2022-09-28T10:31:44.463Z,10.20
2022-09-28T10:34:14.983Z,10.00
2022-09-28T10:36:49.144Z,10.00
2022-09-28T10:39:27.550Z,10.00
2022-09-28T10:42:00.105Z,9.90
2022-09-28T10:44:29.933Z,9.90
2022-09-28T10:47:00.405Z,9.90
2022-09-28T10:49:29.865Z,9.80
2022-09-28T10:51:59.345Z,9.80
2022-09-28T10:54:28.463Z,9.90
2022-09-28T10:57:00.995Z,9.80
2022-09-28T10:59:47.442Z,9.80
2022-09-28T11:02:22.057Z,9.80
2022-09-28T11:04:53.523Z,9.80
2022-09-28T11:07:24.463Z,9.70
2022-09-28T11:09:53.302Z,9.70
2022-09-28T11:12:25.340Z,9.70
2022-09-28T11:14:57.912Z,9.70
2022-09-28T11:17:27.994Z,9.90
2022-09-28T11:19:56.462Z,9.90
2022-09-28T11:22:26.491Z,9.90
2022-09-28T11:25:13.802Z,10.00
2022-09-28T11:27:43.952Z,10.10
2022-09-28T11:30:24.247Z,10.30
2022-09-28T11:32:54.571Z,10.30
2022-09-28T11:35:25.011Z,10.40
2022-09-28T11:38:11.196Z,10.30
2022-09-28T11:40:48.540Z,10.20
2022-09-28T11:43:23.514Z,10.30
2022-09-28T11:45:56.626Z,10.30
2022-09-28T11:48:27.093Z,10.30
2022-09-28T11:50:58.281Z,10.50
2022-09-28T11:53:29.271Z,10.60
2022-09-28T11:56:00.171Z,10.70
2022-09-28T11:58:32.053Z,10.70
2022-09-28T12:01:05.016Z,10.60
2022-09-28T12:03:39.391Z,10.70
2022-09-28T12:06:09.583Z,10.80
2022-09-28T12:08:39.452Z,10.80
2022-09-28T12:11:11.333Z,10.80
2022-09-28T12:13:44.601Z,10.60
2022-09-28T12:16:44.224Z,10.50
2022-09-28T12:19:07.260Z,10.70
2022-09-28T12:21:38.191Z,11.00
2022-09-28T12:24:11.192Z,11.20
2022-09-28T12:26:43.673Z,11.30
2022-09-28T12:29:15.650Z,11.20
2022-09-28T12:31:49.742Z,11.00
2022-09-28T12:34:18.182Z,10.90
2022-09-28T12:36:53.220Z,10.60
2022-09-28T12:39:53.639Z,10.60
2022-09-28T12:42:29.624Z,10.70
2022-09-28T12:45:09.015Z,10.90
2022-09-28T12:47:48.079Z,11.00
2022-09-28T12:50:38.134Z,11.00
2022-09-28T12:53:21.263Z,10.80
2022-09-28T12:55:56.761Z,10.70
2022-09-28T12:58:36.804Z,10.50
2022-09-28T13:01:11.170Z,10.40
2022-09-28T13:03:46.422Z,10.30
2022-09-28T13:06:23.129Z,10.30
2022-09-28T13:08:58.571Z,10.30
2022-09-28T13:11:32.394Z,10.40
2022-09-28T13:14:06.483Z,10.50
2022-09-28T13:16:40.611Z,10.70
2022-09-28T13:19:13.364Z,10.70
2022-09-28T13:21:44.362Z,10.50
2022-09-28T13:24:31.571Z,10.50
2022-09-28T13:27:04.722Z,10.70
2022-09-28T13:29:35.264Z,10.70
2022-09-28T13:32:05.864Z,10.80
2022-09-28T13:34:35.582Z,10.80
2022-09-28T13:37:11.782Z,10.70
2022-09-28T13:39:49.113Z,10.60
2022-09-28T13:42:46.112Z,10.60
2022-09-28T13:45:25.742Z,10.60
2022-09-28T13:48:09.094Z,10.70
2022-09-28T13:50:44.565Z,11.00
2022-09-28T13:53:20.022Z,11.10
2022-09-28T13:55:55.131Z,11.10
2022-09-28T13:58:29.024Z,11.00
2022-09-28T14:01:01.493Z,10.90
2022-09-28T14:03:43.996Z,10.90
2022-09-28T14:06:26.682Z,11.10
2022-09-28T14:09:13.664Z,11.20
2022-09-28T14:11:43.895Z,11.40
2022-09-28T14:14:42.583Z,11.40
2022-09-28T14:17:30.941Z,11.50
2022-09-28T14:20:04.805Z,11.20
2022-09-28T14:22:39.242Z,11.00
2022-09-28T14:25:11.032Z,10.80
2022-09-28T14:28:01.771Z,10.70
2022-09-28T14:30:36.155Z,10.70
2022-09-28T14:33:16.980Z,10.80
2022-09-28T14:35:49.956Z,10.80
2022-09-28T14:38:39.111Z,10.80
2022-09-28T14:41:12.748Z,10.80
2022-09-28T14:44:03.286Z,10.80
2022-09-28T14:46:37.525Z,10.90
2022-09-28T14:49:07.882Z,11.20
2022-09-28T14:52:02.399Z,11.30
2022-09-28T14:54:39.592Z,11.30
2022-09-28T14:57:14.462Z,11.30
2022-09-28T14:59:43.774Z,11.20
2022-09-28T15:02:25.242Z,11.00
2022-09-28T15:04:55.911Z,10.90
2022-09-28T15:07:27.451Z,11.10
2022-09-28T15:09:56.684Z,11.30
2022-09-28T15:12:27.526Z,11.30
2022-09-28T15:14:57.961Z,11.30
2022-09-28T15:17:45.011Z,11.20
2022-09-28T15:20:24.711Z,11.20
2022-09-28T15:23:12.071Z,11.20
2022-09-28T15:25:45.021Z,11.20
2022-09-28T15:28:18.872Z,11.10
2022-09-28T15:30:48.692Z,11.10
2022-09-28T15:33:54.312Z,11.00
2022-09-28T15:36:24.871Z,10.90
2022-09-28T15:38:57.973Z,10.90
2022-09-28T15:41:31.432Z,11.00
2022-09-28T15:44:27.312Z,10.90
2022-09-28T15:47:06.581Z,11.00
2022-09-28T15:49:53.792Z,11.10
2022-09-28T15:52:29.811Z,11.10
2022-09-28T15:54:59.300Z,11.10
2022-09-28T15:57:40.511Z,11.10
2022-09-28T16:00:24.371Z,11.00
2022-09-28T16:03:02.103Z,10.90
2022-09-28T16:05:39.612Z,10.80
2022-09-28T16:08:25.841Z,10.80
2022-09-28T16:10:57.831Z,10.70
2022-09-28T16:13:29.263Z,10.70
2022-09-28T16:16:00.233Z,10.70
2022-09-28T16:18:29.761Z,10.70
2022-09-28T16:21:13.662Z,10.60
2022-09-28T16:23:43.512Z,10.50
2022-09-28T16:26:17.391Z,10.50
2022-09-28T16:28:56.642Z,10.50
2022-09-28T16:31:30.110Z,10.60
2022-09-28T16:34:01.491Z,10.50
2022-09-28T16:36:39.910Z,10.50
2022-09-28T16:39:09.961Z,10.50
2022-09-28T16:41:42.182Z,10.50
2022-09-28T16:44:16.171Z,10.50
2022-09-28T16:46:45.691Z,10.50
2022-09-28T16:49:18.992Z,10.50
2022-09-28T16:51:47.972Z,10.40
2022-09-28T16:54:35.854Z,10.40
2022-09-28T16:57:05.802Z,10.40
2022-09-28T16:59:38.594Z,10.30
2022-09-28T17:02:45.181Z,10.30
2022-09-28T17:05:10.432Z,10.30
2022-09-28T17:07:39.051Z,10.30
2022-09-28T17:10:13.461Z,10.30
2022-09-28T17:13:00.922Z,10.20
2022-09-28T17:15:50.549Z,10.20
2022-09-28T17:18:21.009Z,10.20
2022-09-28T17:20:52.321Z,10.30
2022-09-28T17:23:21.284Z,10.20
2022-09-28T17:25:51.352Z,10.20
2022-09-28T17:28:23.639Z,10.30
2022-09-28T17:30:54.696Z,10.30
2022-09-28T17:33:27.222Z,10.30
2022-09-28T17:35:59.302Z,10.30
2022-09-28T17:38:47.041Z,10.30
2022-09-28T17:41:20.502Z,10.20
2022-09-28T17:43:50.214Z,10.20
2022-09-28T17:46:24.017Z,10.00
2022-09-28T17:48:55.602Z,10.00
2022-09-28T17:51:26.832Z,10.00
2022-09-28T17:53:58.126Z,10.00
2022-09-28T17:56:31.693Z,9.90
2022-09-28T17:59:01.943Z,9.80
2022-09-28T18:01:34.644Z,9.80
2022-09-28T18:04:06.093Z,9.70
2022-09-28T18:06:34.851Z,9.70
2022-09-28T18:09:04.361Z,9.60
2022-09-28T18:11:35.476Z,9.70
2022-09-28T18:14:24.272Z,9.70
2022-09-28T18:16:53.274Z,10.20
2022-09-28T18:19:24.494Z,10.20
2022-09-28T18:21:56.472Z,10.10
2022-09-28T18:24:25.281Z,10.00
2022-09-28T18:26:54.262Z,10.00
2022-09-28T18:29:23.284Z,9.90
2022-09-28T18:31:54.283Z,9.80
2022-09-28T18:34:24.603Z,9.80
2022-09-28T18:36:53.371Z,9.80
2022-09-28T18:39:22.731Z,9.80
2022-09-28T18:41:51.681Z,9.70
2022-09-28T18:44:21.053Z,9.70
2022-09-28T18:46:51.858Z,9.70
2022-09-28T18:49:45.912Z,9.60
2022-09-28T18:52:15.742Z,9.60
2022-09-28T18:54:47.362Z,9.50
2022-09-28T18:57:17.021Z,9.50
2022-09-28T18:59:49.662Z,9.50
2022-09-28T19:02:18.603Z,9.50
2022-09-28T19:04:49.092Z,9.40
2022-09-28T19:07:18.011Z,9.40
2022-09-28T19:09:48.772Z,9.30
2022-09-28T19:12:17.943Z,9.20
2022-09-28T19:14:46.753Z,9.10
2022-09-28T19:17:15.617Z,9.10
2022-09-28T19:19:44.392Z,9.10
2022-09-28T19:22:32.673Z,9.10
2022-09-28T19:25:02.942Z,9.10
2022-09-28T19:27:50.673Z,9.10
2022-09-28T19:30:19.641Z,9.00
2022-09-28T19:32:48.043Z,9.00
2022-09-28T19:35:16.752Z,8.90
2022-09-28T19:37:46.921Z,8.90
2022-09-28T19:40:17.468Z,8.80
2022-09-28T19:42:46.202Z,8.80
2022-09-28T19:45:15.112Z,8.80
2022-09-28T19:47:45.501Z,8.90
2022-09-28T19:50:13.989Z,8.90
2022-09-28T19:52:42.995Z,8.80
2022-09-28T19:55:11.932Z,8.80
2022-09-28T19:57:42.211Z,8.90
2022-09-28T20:00:12.953Z,8.90
2022-09-28T20:02:41.601Z,8.90
2022-09-28T20:05:10.452Z,8.90
2022-09-28T20:07:40.314Z,9.00
2022-09-28T20:10:12.292Z,9.00
2022-09-28T20:12:42.701Z,8.90
2022-09-28T20:15:11.762Z,9.00
2022-09-28T20:17:40.711Z,8.90
2022-09-28T20:20:10.031Z,8.90
2022-09-28T20:22:38.782Z,8.90
2022-09-28T20:25:08.084Z,8.90
2022-09-28T20:27:39.451Z,8.90
2022-09-28T20:30:11.680Z,8.90
2022-09-28T20:32:40.394Z,9.00
2022-09-28T20:35:10.433Z,8.90
2022-09-28T20:37:39.201Z,8.90
2022-09-28T20:40:10.553Z,8.80
2022-09-28T20:42:42.682Z,8.80
2022-09-28T20:45:14.371Z,8.70
2022-09-28T20:47:43.152Z,8.70
2022-09-28T20:50:12.039Z,8.70
2022-09-28T20:52:40.693Z,8.60
2022-09-28T20:55:10.211Z,8.50
2022-09-28T20:57:38.930Z,8.50
2022-09-28T21:00:08.311Z,8.50
2022-09-28T21:02:39.096Z,8.50
2022-09-28T21:05:08.412Z,8.60
2022-09-28T21:07:37.161Z,8.50
2022-09-28T21:10:06.691Z,8.50
2022-09-28T21:12:35.549Z,8.40
2022-09-28T21:15:06.961Z,8.40
2022-09-28T21:17:45.671Z,8.40
2022-09-28T21:20:32.943Z,8.30
2022-09-28T21:23:02.122Z,8.30
2022-09-28T21:25:31.672Z,8.30
2022-09-28T21:28:00.161Z,8.30
2022-09-28T21:30:28.811Z,8.20
2022-09-28T21:33:01.552Z,8.20
2022-09-28T21:35:35.521Z,8.20
2022-09-28T21:38:07.081Z,8.20
2022-09-28T21:40:37.052Z,8.20
2022-09-28T21:43:05.631Z,8.20
2022-09-28T21:45:35.228Z,8.10
2022-09-28T21:48:05.773Z,7.80
2022-09-28T21:50:36.643Z,8.10
2022-09-28T21:53:05.214Z,8.10
2022-09-28T21:55:34.142Z,8.00
2022-09-28T21:58:03.143Z,8.00
2022-09-28T22:00:32.671Z,8.00
2022-09-28T22:03:01.252Z,8.00
2022-09-28T22:05:31.543Z,8.00
2022-09-28T22:08:01.462Z,8.00
2022-09-28T22:10:30.825Z,7.90
2022-09-28T22:13:02.103Z,8.00
2022-09-28T22:15:32.492Z,8.00
2022-09-28T22:18:01.362Z,8.10
2022-09-28T22:20:31.763Z,8.00
2022-09-28T22:23:00.332Z,8.00
2022-09-28T22:25:29.903Z,8.00
2022-09-28T22:27:58.611Z,7.90
2022-09-28T22:30:27.431Z,7.90
2022-09-28T22:32:56.002Z,8.00
2022-09-28T22:35:24.521Z,8.00
2022-09-28T22:37:54.532Z,7.90
2022-09-28T22:40:25.755Z,7.90
2022-09-28T22:43:13.730Z,8.00
2022-09-28T22:45:42.212Z,8.00
2022-09-28T22:48:10.731Z,8.00
2022-09-28T22:50:39.139Z,8.10
2022-09-28T22:53:10.461Z,8.10
2022-09-28T22:55:38.801Z,8.10
2022-09-28T22:58:07.341Z,8.10
2022-09-28T23:00:36.843Z,8.20
2022-09-28T23:03:05.514Z,8.20
2022-09-28T23:05:34.184Z,8.30
2022-09-28T23:08:03.489Z,8.20
2022-09-28T23:10:33.896Z,8.20
2022-09-28T23:13:02.238Z,8.20
2022-09-28T23:15:31.197Z,8.20
2022-09-28T23:17:59.628Z,8.20
2022-09-28T23:20:28.187Z,8.20
2022-09-28T23:22:56.896Z,8.20
2022-09-28T23:25:25.277Z,8.20
2022-09-28T23:27:55.168Z,8.10
2022-09-28T23:30:25.337Z,8.10
2022-09-28T23:32:54.781Z,8.00
2022-09-28T23:35:23.376Z,8.00
2022-09-28T23:37:52.307Z,8.10
2022-09-28T23:40:20.754Z,8.20
2022-09-28T23:42:50.257Z,8.10
2022-09-28T23:45:20.259Z,8.20
2022-09-28T23:47:49.111Z,8.10
2022-09-28T23:50:35.930Z,8.10
2022-09-28T23:53:04.302Z,8.20
2022-09-28T23:55:32.789Z,8.20
2022-09-28T23:58:01.311Z,8.30
